CheckWX is a tool to help pilots better visualize weather data.  It is not intended as a substitute for an official pre-flight weather briefing.

19:50:39 UTC

KAVL METAR
Asheville Regional Airport
Asheville, North Carolina, USA
Current

57 mins ago

KAVL 261854Z 35009KT 10SM FEW065 31/16 A3017 RMK AO2 SLP187 T03110156
Observed
May-26 @ 18:54 UTC
Wind
  • 350° at 9 KTS
Visibility
10 SM
Flight Rules
VFR
Cloud Levels
  • Few at 6,500' AGL
Temperature
31°C / 88°F
Dewpoint
16°C / 61°F
Heat Index
31°C / 88°F
Humidity
40%
Altimeter
30.17" Hg
Pressure
1021.72 hPa
Previous

2 hours ago

KAVL 261754Z VRB06KT 10SM SCT070 SCT080 30/16 A3020 RMK AO2 SLP196 T03000156 10300 20189 56012
Observed
May-26 @ 17:54 UTC
Wind
  • Variable at 6 KTS
Visibility
10 SM
Flight Rules
VFR
Cloud Levels
  • Scattered at 7,000' AGL
  • Scattered at 8,000' AGL
Temperature
30°C / 86°F
Dewpoint
16°C / 61°F
Heat Index
30°C / 86°F
Humidity
43%
Altimeter
30.2" Hg
Pressure
1022.72 hPa
Previous

3 hours ago

KAVL 261654Z 35011G16KT 10SM CLR 29/17 A3021 RMK AO2 SLP201 T02940167
Observed
May-26 @ 16:54 UTC
Wind
  • 350° at 11 KTS
  • Gusting to 16 KTS
Visibility
10 SM
Flight Rules
VFR
Cloud Levels
  • Clear skies
Temperature
29°C / 84°F
Dewpoint
17°C / 63°F
Heat Index
29°C / 85°F
Humidity
48%
Altimeter
30.21" Hg
Pressure
1023.02 hPa